»·PEaware :: JUS224 KVGT-KONT

JUS224 :: KVGT-KONT

FLIGHT INFORMATION

Flight Status: Arrived
Operator:
USA Jet
More flights by this operator :: More flights under this callsign
Pilot: Riley M. (10391)
Aircraft: BOEING 737-300
(B733)
More flights by this aircraft type
Origin: KVGT North Las Vegas
United States
Destination: KONT Ontario Intl
United States
More flights between these airports :: More routes between these airports
Route: +RTTRN2 LAS GFS HEC ZIGGY2
File this flight plan on PilotEdge
Remarks: Jet USA
Altitude:
(Current/Filed)
26,000ft
Speed:
(Current/Filed)
410kts
Departed: 04-Sep-16 06:40 PM
Arrived: 04-Sep-16 08:00 PM
Distance/Time
Traveled:
175nm/1:20
Distance/Time
To Go:
Arrived

Flight Plot

Page will automatically refresh every two minutes.

Flight plan parsing failed; only flown route is shown


Map Options




Map Legend


Flown Route
Filed Route
Departure Airport
Arrival Airport
Navaid (VOR, NDB)
Fix

Horizontal Profiles

Position Reports

Time Latitude Longitude Heading Altitude Ground
Speed
04-Sep-16 18:13 36.209304 -115.198339 43 2212ft 0kts
04-Sep-16 18:14 36.209304 -115.198339 43 2212ft 0kts
04-Sep-16 18:15 36.209304 -115.198339 43 2212ft 0kts
04-Sep-16 18:16 36.209304 -115.198339 43 2212ft 0kts
04-Sep-16 18:17 36.209304 -115.198339 43 2212ft 0kts
04-Sep-16 18:18 36.209304 -115.198339 43 2212ft 0kts
04-Sep-16 18:19 36.209304 -115.198339 43 2212ft 0kts
04-Sep-16 18:20 36.209304 -115.198339 43 2212ft 0kts
04-Sep-16 18:21 36.209304 -115.198339 43 2212ft 0kts
04-Sep-16 18:22 36.209304 -115.198339 43 2212ft 0kts
04-Sep-16 18:23 36.209304 -115.198339 43 2212ft 0kts
04-Sep-16 18:24 36.209304 -115.198339 43 2212ft 0kts
04-Sep-16 18:25 36.209304 -115.198339 43 2212ft 0kts
04-Sep-16 18:26 36.209304 -115.198339 43 2212ft 0kts
04-Sep-16 18:27 36.209304 -115.198339 43 2212ft 0kts
04-Sep-16 18:28 36.209942 -115.198491 312 2212ft 12kts
04-Sep-16 18:29 36.211483 -115.199766 314 2212ft 38kts
04-Sep-16 18:30 36.212505 -115.202883 255 2212ft 13kts
04-Sep-16 18:31 36.212587 -115.203333 332 2212ft 0kts
04-Sep-16 18:32 36.212666 -115.203379 338 2212ft 4kts
04-Sep-16 18:33 36.214042 -115.203271 26 2212ft 0kts
04-Sep-16 18:34 36.214042 -115.203271 26 2212ft 0kts
04-Sep-16 18:35 36.214048 -115.203267 26 2212ft 1kts
04-Sep-16 18:36 36.214491 -115.202722 79 2212ft 8kts
04-Sep-16 18:37 36.214014 -115.201807 134 2212ft 40kts
04-Sep-16 18:38 36.208362 -115.194683 129 2226ft 145kts
04-Sep-16 18:39 36.196144 -115.184968 170 2978ft 190kts
04-Sep-16 18:40 36.177946 -115.191080 218 3876ft 222kts
04-Sep-16 18:41 36.166838 -115.215858 260 4837ft 225kts
04-Sep-16 18:42 36.165448 -115.237730 285 5541ft 226kts
04-Sep-16 18:43 36.175428 -115.255483 329 6258ft 227kts
04-Sep-16 18:44 36.191822 -115.263366 342 6966ft 228kts
04-Sep-16 18:45 36.217243 -115.274033 340 8023ft 230kts
04-Sep-16 18:46 36.236674 -115.283068 339 8835ft 235kts
04-Sep-16 18:47 36.261322 -115.284438 27 9045ft 241kts
04-Sep-16 18:48 36.278388 -115.245233 93 9288ft 283kts
04-Sep-16 18:49 36.267182 -115.216177 140 9332ft 259kts
04-Sep-16 18:50 36.249743 -115.207475 178 9276ft 251kts
04-Sep-16 18:51 36.225268 -115.207019 175 9301ft 261kts
04-Sep-16 18:52 36.202808 -115.203616 169 9303ft 259kts
04-Sep-16 18:53 36.158412 -115.190726 164 10384ft 292kts
04-Sep-16 18:54 36.102713 -115.169904 162 12308ft 334kts
04-Sep-16 18:55 36.034579 -115.160990 181 15249ft 346kts
04-Sep-16 18:56 35.944794 -115.163188 180 18529ft 364kts
04-Sep-16 18:57 35.859335 -115.164775 180 21183ft 379kts
04-Sep-16 18:58 35.766899 -115.166400 180 23662ft 395kts
04-Sep-16 18:59 35.671156 -115.168091 180 25952ft 409kts
04-Sep-16 19:00 35.573527 -115.169799 180 26319ft 373kts
04-Sep-16 19:01 35.491216 -115.171272 180 26247ft 346kts
04-Sep-16 19:02 35.411285 -115.172640 180 26306ft 354kts
04-Sep-16 19:03 35.329870 -115.174046 180 26289ft 353kts
04-Sep-16 19:04 35.260604 -115.175251 180 26293ft 353kts
04-Sep-16 19:05 35.195737 -115.176377 180 26292ft 353kts
04-Sep-16 19:06 35.139577 -115.193476 217 26288ft 353kts
04-Sep-16 19:07 35.107232 -115.263506 252 26298ft 354kts
04-Sep-16 19:08 35.083513 -115.355744 252 26291ft 353kts
04-Sep-16 19:09 35.054466 -115.469270 252 26293ft 353kts
04-Sep-16 19:10 35.025284 -115.582894 252 26292ft 353kts
04-Sep-16 19:11 34.996001 -115.696406 252 26292ft 353kts
04-Sep-16 19:12 34.974409 -115.779951 252 26056ft 367kts
04-Sep-16 19:13 34.955107 -115.869873 258 25316ft 370kts
04-Sep-16 19:14 34.934696 -115.959791 252 24578ft 371kts
04-Sep-16 19:15 34.909713 -116.050699 251 24291ft 372kts
04-Sep-16 19:16 34.887170 -116.131685 251 24293ft 374kts
04-Sep-16 19:17 34.860903 -116.226085 250 24292ft 374kts
04-Sep-16 19:18 34.837449 -116.309165 250 24292ft 374kts
04-Sep-16 19:19 34.822475 -116.362050 250 24292ft 374kts
04-Sep-16 19:20 34.799152 -116.444170 250 24292ft 374kts
04-Sep-16 19:21 34.769660 -116.496174 225 24281ft 349kts
04-Sep-16 19:22 34.713235 -116.565106 225 24285ft 357kts
04-Sep-16 19:23 34.670591 -116.617449 225 24370ft 345kts
04-Sep-16 19:24 34.615683 -116.684735 225 22838ft 380kts
04-Sep-16 19:25 34.572286 -116.737883 225 21376ft 356kts
04-Sep-16 19:26 34.529902 -116.789732 225 19953ft 336kts
04-Sep-16 19:27 34.488629 -116.840144 225 18639ft 329kts
04-Sep-16 19:28 34.463211 -116.871141 225 17843ft 325kts
04-Sep-16 19:29 34.441848 -116.897179 225 17169ft 323kts
04-Sep-16 19:30 34.409792 -116.936258 225 16149ft 320kts
04-Sep-16 19:31 34.375147 -116.978415 225 15038ft 317kts
04-Sep-16 19:32 34.346531 -117.013148 225 14111ft 314kts
04-Sep-16 19:33 34.319419 -117.046010 225 13228ft 312kts
04-Sep-16 19:34 34.298814 -117.070976 225 12552ft 310kts
04-Sep-16 19:35 34.278720 -117.095317 225 11889ft 309kts
04-Sep-16 19:36 34.248471 -117.132295 225 10857ft 295kts
04-Sep-16 19:37 34.223113 -117.163177 225 9961ft 286kts
04-Sep-16 19:38 34.197863 -117.193765 224 9047ft 279kts
04-Sep-16 19:39 34.173308 -117.223415 224 8382ft 262kts
04-Sep-16 19:40 34.155008 -117.248058 243 8129ft 239kts
04-Sep-16 19:41 34.144915 -117.280921 251 7348ft 238kts
04-Sep-16 19:42 34.138589 -117.303364 251 6750ft 235kts
04-Sep-16 19:43 34.129889 -117.334066 251 6293ft 230kts
04-Sep-16 19:44 34.119344 -117.366444 233 6044ft 219kts
04-Sep-16 19:45 34.101939 -117.384023 211 5536ft 202kts
04-Sep-16 19:46 34.084462 -117.397060 210 4926ft 190kts
04-Sep-16 19:47 34.066521 -117.409449 212 4227ft 181kts
04-Sep-16 19:48 34.055450 -117.430375 256 3819ft 155kts
04-Sep-16 19:49 34.053925 -117.453844 276 3610ft 153kts
04-Sep-16 19:50 34.054726 -117.477378 271 3155ft 147kts
04-Sep-16 19:51 34.054276 -117.497415 271 2836ft 143kts
04-Sep-16 19:52 34.054360 -117.516632 274 2184ft 140kts
04-Sep-16 19:53 34.054869 -117.534884 274 1754ft 130kts
04-Sep-16 19:54 34.054846 -117.550093 272 1520ft 116kts
04-Sep-16 19:55 34.054981 -117.565924 273 1304ft 132kts
04-Sep-16 19:56 34.054908 -117.582126 274 993ft 123kts
04-Sep-16 19:57 34.054987 -117.594912 269 950ft 57kts
04-Sep-16 19:58 34.054976 -117.600667 264 950ft 22kts
04-Sep-16 19:59 34.053938 -117.602208 176 950ft 6kts
04-Sep-16 20:00 34.053630 -117.601337 83 950ft 18kts
04-Sep-16 20:01 34.053905 -117.596341 89 950ft 31kts
04-Sep-16 20:02 34.053919 -117.590272 90 950ft 41kts
04-Sep-16 20:03 34.053930 -117.583527 90 950ft 32kts
04-Sep-16 20:04 34.052457 -117.578614 90 950ft 46kts
04-Sep-16 20:05 34.050840 -117.577346 265 950ft 7kts
04-Sep-16 20:06 34.050899 -117.577773 296 950ft 0kts
04-Sep-16 20:07 34.050899 -117.577773 296 950ft 0kts
04-Sep-16 20:08 34.050899 -117.577773 296 950ft 0kts

Navigation Log

Ident Type
Flight plan parsing failed, navigation log unavailable